27 de junio de 2022

Hora Código Tiempo Temp. Visibilidad Cielo nuboso Viento METAR/SPECI
3:00 p. m.
M
61 °F 6¼ mi+ 1.100 ft 310° 310° 5 kt METAR LFLW 271300Z AUTO 31005KT 260V350 9999 OVC011 16/13 Q1021 BECMG FEW040
2:30 p. m.
I
61 °F 6¼ mi+ 900 ft 310° 310° 7 kt METAR LFLW 271230Z AUTO 31007KT 280V350 9999 BKN009 OVC016 16/14 Q1021 BECMG FEW040
2:00 p. m.
I
59 °F 6¼ mi+ 600 ft 300° 300° 5 kt METAR LFLW 271200Z AUTO 30005KT 260V010 9999 BKN006/// OVC011/// ///TCU 15/13 Q1021 BECMG BKN035
1:30 p. m.
I
59 °F 6¼ mi+ 600 ft 300° 300° 5 kt METAR LFLW 271130Z AUTO 30005KT 260V350 9999 BKN006/// BKN019/// BKN038/// ///TCU 15/14 Q1021 BECMG FEW040
1:00 p. m.
I
59 °F 6¼ mi+ 600 ft 290° 290° 4 kt METAR LFLW 271100Z AUTO 29004KT 240V340 9999 BKN006/// OVC011/// ///TCU 15/14 Q1021 BECMG FEW040
12:30 p. m.
I
57 °F 6¼ mi+ 500 ft 270° 270° 4 kt METAR LFLW 271030Z AUTO 27004KT 230V310 9999 BKN005/// BKN010/// OVC033/// ///TCU 14/13 Q1021 BECMG FEW040
12:00 p. m.
L
57 °F 6¼ mi+ 400 ft 290° 290° 6 kt METAR LFLW 271000Z AUTO 29006KT 250V330 9999 BKN004 BKN010 OVC015 14/13 Q1021 BECMG BKN035
11:30 a. m.
L
59 °F 6¼ mi+ 400 ft 300° 300° 5 kt METAR LFLW 270930Z AUTO 30005KT 260V320 9999 BKN004 BKN010 OVC023 15/14 Q1020 BECMG BKN035
11:00 a. m.
I
59 °F 6¼ mi+ 500 ft 300° 300° 4 kt METAR LFLW 270900Z AUTO 30004KT 250V350 9999 BKN005 BKN014 OVC020 15/14 Q1020 BECMG BKN035
10:30 a. m.
L
57 °F 6¼ mi+ 400 ft 300° 300° 5 kt METAR LFLW 270830Z AUTO 30005KT 270V330 9999 BKN004 BKN009 OVC017 14/14 Q1020 TEMPO 3000 RA
10:00 a. m.
L
57 °F 6¼ mi+ 400 ft 280° 280° 4 kt METAR LFLW 270800Z AUTO 28004KT 230V320 9999 BKN004 OVC010 14/14 Q1019 TEMPO 3000 RA
9:30 a. m.
L
57 °F 6¼ mi+ 300 ft 300° 300° 4 kt METAR LFLW 270730Z AUTO 30004KT 270V340 9999 -RA BKN003 BKN027 OVC037 14/14 Q1019 TEMPO 3000 RA
9:00 a. m.
L
57 °F 6¼ mi+ 200 ft 310° 310° 4 kt METAR LFLW 270700Z AUTO 31004KT 280V350 9999 OVC002 14/13 Q1019 TEMPO 3000 RA
8:30 a. m.
L
57 °F 6¼ mi+ 200 ft 320° 320° 3 kt METAR LFLW 270630Z AUTO 32003KT 260V010 9999 OVC002/// ///TCU 14/13 Q1019 TEMPO 3000 RA BKN002
8:00 a. m.
L
57 °F 6¼ mi+ 300 ft Var Var 3 kt METAR LFLW 270600Z AUTO VRB03KT 9999 -RA BKN003/// BKN018/// OVC082/// ///TCU 14/13 Q1019 TEMPO 3000 RA BKN002
7:30 a. m.
I
55 °F 2 mi 8.000 ft Var Var 2 kt METAR LFLW 270530Z AUTO VRB02KT 3200 RA BR FEW002/// OVC080/// ///CB 13/13 Q1018 TEMPO BKN002
7:00 a. m.
I
57 °F 3 mi 4.800 ft Var Var 3 kt METAR LFLW 270500Z AUTO VRB03KT 4800 RA BR SCT008/// SCT041/// BKN048/// ///CB 14/13 Q1018
6:30 a. m.
M
55 °F 3⅛ mi 4.300 ft Var Var 2 kt METAR LFLW 270430Z AUTO VRB02KT 5000 RA BR SCT009/// BKN043/// BKN066/// ///CB 13/13 Q1018
6:00 a. m.
V
55 °F 6¼ mi+ 8.000 ft Var Var 3 kt METAR LFLW 270400Z AUTO VRB03KT 9999 -RA FEW003/// SCT016/// OVC080/// ///CB 13/13 Q1018
5:30 a. m.
L
57 °F 4⅜ mi 400 ft 320° 320° 4 kt METAR LFLW 270330Z AUTO 32004KT 250V030 7000 RA BKN004/// BKN014/// OVC021/// ///CB 14/13 Q1017
5:00 a. m.
I
57 °F 6¼ mi+ 600 ft 260° 260° 4 kt METAR LFLW 270300Z AUTO 26004KT 230V300 9999 +RA OVC006/// ///CB 14/13 Q1017
4:30 a. m.
I
57 °F 6¼ mi+ 500 ft 300° 300° 4 kt METAR LFLW 270230Z AUTO 30004KT 250V340 9999 -RA BKN005/// OVC015/// ///CB 14/13 Q1016
4:00 a. m.
L
57 °F 6¼ mi+ 200 ft 300° 300° 6 kt METAR LFLW 270200Z AUTO 30006KT 270V340 9999 -RA OVC002/// ///CB 14/13 Q1016
3:30 a. m.
L
57 °F 4⅜ mi 300 ft 290° 290° 6 kt METAR LFLW 270130Z AUTO 29006KT 250V340 7000 RA OVC003/// ///CB 14/13 Q1016
3:00 a. m.
L
57 °F 2⅝ mi 200 ft 250° 250° 6 kt METAR LFLW 270100Z AUTO 25006KT 220V280 4300 RA BR VCTS BKN002/// BKN039/// OVC052/// ///CB 14/13 Q1016
2:30 a. m.
I
57 °F 4⅜ mi 700 ft 280° 280° 5 kt METAR LFLW 270030Z AUTO 28005KT 250V310 7000 +TSRA FEW003/// BKN007/// OVC036/// ///CB 14/13 Q1016
2:00 a. m.
L
57 °F 6¼ mi+ 400 ft Var Var 2 kt METAR LFLW 270000Z AUTO VRB02KT 9999 -RA BKN004/// BKN017/// OVC040/// ///CB 14/14 Q1016
1:30 a. m.
L
57 °F 3¾ mi 300 ft 330° 330° 5 kt METAR LFLW 262330Z AUTO 33005KT 290V010 6000 -RA OVC003/// ///CB 14/14 Q1016
1:00 a. m.
L
57 °F 6¼ mi+ 400 ft 290° 290° 6 kt METAR LFLW 262300Z AUTO 29006KT 250V330 9999 VCTS BKN004/// OVC026/// ///CB 14/14 Q1016
12:30 a. m.
M
59 °F 6¼ mi+ 2.800 ft 260° 260° 5 kt METAR LFLW 262230Z AUTO 26005KT 230V290 9999 FEW006/// OVC028/// ///CB 15/14 Q1016
12:00 a. m.
M
59 °F 6¼ mi+ 2.900 ft Var Var 3 kt METAR LFLW 262200Z AUTO VRB03KT 9999 OVC029 15/14 Q1016

26 de junio de 2022

Hora Código Tiempo Temp. Visibilidad Cielo nuboso Viento METAR/SPECI
11:30 p. m.
M
59 °F 6¼ mi+ 2.800 ft Var Var 3 kt METAR LFLW 262130Z AUTO VRB03KT 9999 BKN028/// OVC040/// ///CB 15/14 Q1016
11:00 p. m.
M
59 °F 6¼ mi+ 2.700 ft 280° 280° 4 kt METAR LFLW 262100Z AUTO 28004KT 250V320 9999 OVC027 15/14 Q1016
10:30 p. m.
M
59 °F 6¼ mi+ 2.500 ft 250° 250° 3 kt METAR LFLW 262030Z AUTO 25003KT 9999 OVC025 15/14 Q1015
10:00 p. m.
M
59 °F 6¼ mi+ 2.300 ft Var Var 3 kt METAR LFLW 262000Z AUTO VRB03KT 9999 OVC023/// ///CB 15/15 Q1015
9:30 p. m.
M
59 °F 6¼ mi+ 2.500 ft 260° 260° 3 kt METAR LFLW 261930Z AUTO 26003KT 230V300 9999 FEW006/// OVC025/// ///CB 15/15 Q1014
9:00 p. m.
L
59 °F 6¼ mi+ 400 ft 280° 280° 3 kt METAR LFLW 261900Z AUTO 28003KT 240V320 9999 BKN004/// OVC019/// ///CB 15/15 Q1015
8:30 p. m.
L
59 °F 6¼ mi+ 400 ft 310° 310° 4 kt METAR LFLW 261830Z AUTO 31004KT 250V360 9999 BKN004/// OVC013/// ///CB 15/15 Q1014
8:00 p. m.
L
59 °F 2¼ mi - 290° 290° 5 kt METAR LFLW 261800Z AUTO 29005KT 240V340 3700 -DZ BR VV/// ///CB 15/15 Q1014
7:30 p. m.
I
61 °F 6¼ mi+ 500 ft 310° 310° 5 kt METAR LFLW 261730Z AUTO 31005KT 280V360 9999 -DZ BKN005/// OVC010/// ///CB 16/15 Q1014
7:00 p. m.
M
61 °F 6¼ mi+ 1.200 ft 310° 310° 4 kt METAR LFLW 261700Z AUTO 31004KT 250V360 9999 FEW003/// OVC012/// ///CB 16/15 Q1014 TEMPO 30015G25KT 2000 TSRA BKN004 BKN020CB
6:30 p. m.
L
61 °F 6¼ mi+ 300 ft 300° 300° 8 kt METAR LFLW 261630Z AUTO 30008KT 260V340 9999 OVC003/// ///CB 16/15 Q1013 TEMPO 30015G25KT 2000 TSRA
6:00 p. m.
I
63 °F 6¼ mi+ 700 ft 290° 290° 6 kt METAR LFLW 261600Z AUTO 29006KT 240V340 9999 BKN007/// OVC014/// ///CB 17/16 Q1013 TEMPO 30015G25KT 2000 TSRA BKN004 BKN020CB
5:30 p. m.
I
64 °F 6¼ mi+ 700 ft 290° 290° 5 kt METAR LFLW 261530Z AUTO 29005KT 250V330 9999 BKN007/// OVC013/// ///CB 18/16 Q1013 TEMPO 30015G25KT 2000 TSRA BKN004 BKN020CB
5:00 p. m.
I
63 °F 6¼ mi+ 600 ft 300° 300° 5 kt METAR LFLW 261500Z AUTO 30005KT 250V330 9999 BKN006 OVC022 17/16 Q1013 TEMPO 30015G25KT 2000 TSRA BKN004 BKN020CB
4:30 p. m.
L
64 °F 6¼ mi+ 400 ft 310° 310° 4 kt METAR LFLW 261430Z AUTO 31004KT 260V020 9999 BKN004/// BKN008/// OVC014/// ///TCU 18/16 Q1013 TEMPO 30015G25KT 2000 TSRA BKN004 BKN020CB
4:00 p. m.
M
64 °F 6¼ mi+ 1.000 ft 300° 300° 3 kt METAR LFLW 261400Z AUTO 30003KT 260V330 9999 FEW004/// BKN010/// OVC014/// ///CB 18/17 Q1013 TEMPO 30015G25KT 2000 TSRA BKN004 BKN020CB
3:30 p. m.
M
64 °F 6¼ mi+ 1.300 ft Var Var 3 kt METAR LFLW 261330Z AUTO VRB03KT 9999 FEW008 BKN013 BKN018 18/17 Q1013 TEMPO 30015G25KT 2000 TSRA BKN004 BKN020CB
3:00 p. m.
V
64 °F 6¼ mi+ 6.000 ft Var Var 3 kt METAR LFLW 261300Z AUTO VRB03KT 9999 SCT046/// OVC060/// ///TCU 18/16 Q1013 TEMPO 30015G25KT 2000 TSRA BKN004 BKN020CB
2:30 p. m.
V
63 °F 6¼ mi+ 5.600 ft 090° 090° 3 kt METAR LFLW 261230Z AUTO 09003KT 9999 -RA BKN056/// OVC096/// ///TCU 17/16 Q1013 TEMPO 30015G25KT 2000 TSRA BKN004 BKN020CB
2:00 p. m.
V
63 °F 6¼ mi+ 5.400 ft Var Var 3 kt METAR LFLW 261200Z AUTO VRB03KT 9999 -RA FEW032/// BKN054/// BKN082/// ///CB 17/15 Q1013 TEMPO 30015G25KT 2000 TSRA BKN004 BKN020CB
1:30 p. m.
V
63 °F 6¼ mi+ 4.700 ft 220° 220° 3 kt METAR LFLW 261130Z AUTO 22003KT 170V240 9999 -RA SCT033/// BKN047/// BKN054/// ///CB 17/15 Q1014 TEMPO 30015G25KT 2000 TSRA BKN004 BKN020CB
1:00 p. m.
V
64 °F 6¼ mi+ 4.500 ft Var Var 3 kt METAR LFLW 261100Z AUTO VRB03KT 9999 -RA FEW035 BKN045 BKN052 18/14 Q1014 TEMPO 30015G25KT 2000 TSRA BKN004 BKN020CB
12:30 p. m.
M
64 °F 6¼ mi+ 2.300 ft Var Var 2 kt METAR LFLW 261030Z AUTO VRB02KT 9999 FEW012 BKN023 BKN028 18/14 Q1014 TEMPO 30015G25KT 2000 TSRA BKN004 BKN020CB
12:00 p. m.
M
63 °F 6¼ mi+ 2.700 ft Var Var 3 kt METAR LFLW 261000Z AUTO VRB03KT 9999 FEW007 OVC027 17/15 Q1014 TEMPO 4000 RA BKN006 FEW020CB BKN025TCU
11:30 a. m.
M
61 °F 6¼ mi+ 2.200 ft 340° 340° 4 kt METAR LFLW 260930Z AUTO 34004KT 290V020 9999 FEW007 OVC022 16/15 Q1014 TEMPO 4000 RA BKN006 FEW020CB BKN025TCU
11:00 a. m.
M
59 °F 6¼ mi+ 2.300 ft 340° 340° 5 kt METAR LFLW 260900Z AUTO 34005KT 290V020 9999 FEW005/// OVC023/// ///TCU 15/15 Q1014 TEMPO 4000 RA BKN006 FEW020CB BKN025TCU
10:30 a. m.
L
59 °F 6¼ mi+ 300 ft 290° 290° 4 kt METAR LFLW 260830Z AUTO 29004KT 260V340 9999 BKN003/// BKN007/// OVC023/// ///CB 15/14 Q1015 TEMPO 4000 RA BKN006 FEW020CB BKN025TCU
10:00 a. m.
M
59 °F 6¼ mi+ 2.300 ft 310° 310° 4 kt METAR LFLW 260800Z AUTO 31004KT 270V350 9999 -RA SCT004/// OVC023/// ///CB 15/14 Q1015 TEMPO 4000 RA BKN003 FEW030CB
9:30 a. m.
M
59 °F 6¼ mi+ 2.100 ft 100° 100° 3 kt METAR LFLW 260730Z AUTO 10003KT 070V130 9999 OVC021/// ///TCU 15/13 Q1015 TEMPO 4000 RA BKN003 FEW030CB
9:00 a. m.
M
59 °F 6¼ mi+ 2.600 ft 100° 100° 4 kt METAR LFLW 260700Z AUTO 10004KT 070V130 9999 OVC026/// ///TCU 15/14 Q1015 TEMPO 4000 RA BKN003 FEW030CB
8:30 a. m.
V
59 °F 6¼ mi+ 3.000 ft 090° 090° 3 kt METAR LFLW 260630Z AUTO 09003KT 050V120 9999 FEW009/// OVC030/// ///TCU 15/13 Q1015 TEMPO 4000 RA BKN003 FEW030CB
8:00 a. m.
V
57 °F 6¼ mi+ 3.500 ft Var Var 2 kt METAR LFLW 260600Z AUTO VRB02KT 9999 FEW006/// BKN035/// OVC041/// ///TCU 14/13 Q1015 TEMPO 4000 RA BKN003 FEW030CB
7:30 a. m.
V
57 °F 6¼ mi+ 3.600 ft Var Var 2 kt METAR LFLW 260530Z AUTO VRB02KT 9999 SCT006/// OVC036/// ///CB 14/13 Q1015 TEMPO 4000 RA BKN003 FEW030CB
7:00 a. m.
L
57 °F 6¼ mi+ 300 ft 340° 340° 5 kt METAR LFLW 260500Z AUTO 34005KT 290V020 9999 BKN003/// BKN010/// OVC039/// ///CB 14/13 Q1015
6:30 a. m.
V
57 °F 6¼ mi+ 3.600 ft 250° 250° 4 kt METAR LFLW 260430Z AUTO 25004KT 140V300 9999 FEW004/// OVC036/// ///CB 14/13 Q1015
6:00 a. m.
V
57 °F 6¼ mi+ 3.500 ft 110° 110° 3 kt METAR LFLW 260400Z AUTO 11003KT 9999 BKN035/// OVC047/// ///CB 14/13 Q1014
5:30 a. m.
V
57 °F 6¼ mi+ - Var Var 3 kt METAR LFLW 260330Z AUTO VRB03KT 9999 -RA ///TCU 14/13 Q1014
5:00 a. m.
V
57 °F 5⅝ mi 9.000 ft Var Var 2 kt METAR LFLW 260300Z AUTO VRB02KT 9000 -RA FEW005/// SCT026/// OVC090/// ///CB 14/13 Q1014
4:30 a. m.
L
57 °F 3¾ mi 200 ft 330° 330° 4 kt METAR LFLW 260230Z AUTO 33004KT 290V010 6000 -RA BKN002/// BKN045/// OVC058/// ///CB 14/14 Q1014
4:00 a. m.
V
57 °F 6¼ mi+ 4.000 ft 280° 280° 5 kt METAR LFLW 260200Z AUTO 28005KT 250V310 9999 RA FEW003/// OVC040/// ///CB 14/14 Q1015
3:30 a. m.
V
57 °F 6¼ mi+ 3.500 ft 260° 260° 3 kt METAR LFLW 260130Z AUTO 26003KT 9999 OVC035/// ///CB 14/14 Q1015
3:00 a. m.
V
57 °F 6¼ mi+ 3.700 ft Var Var 1 kt METAR LFLW 260100Z AUTO VRB01KT 9999 BKN037 BKN043 BKN078 14/14 Q1015
2:30 a. m.
V
57 °F 6¼ mi+ 9.000 ft 310° 310° 4 kt METAR LFLW 260030Z AUTO 31004KT 250V360 9999 FEW005/// BKN090/// OVC160/// ///TCU 14/14 Q1015
2:00 a. m.
V
57 °F 6¼ mi+ 3.700 ft 350° 350° 4 kt METAR LFLW 260000Z AUTO 35004KT 300V020 9999 -RA FEW011/// BKN037/// BKN050/// ///CB 14/14 Q1015
1:30 a. m.
I
59 °F 3⅛ mi 700 ft 280° 280° 6 kt METAR LFLW 252330Z AUTO 28006KT 240V360 5000 +RA BR FEW003/// BKN007/// BKN019/// ///CB 15/14 Q1015
1:00 a. m.
V
59 °F 6¼ mi+ 3.800 ft 290° 290° 5 kt METAR LFLW 252300Z AUTO 29005KT 240V320 9999 -TSRA FEW005/// OVC038/// ///CB 15/14 Q1015
12:30 a. m.
I
59 °F 2¾ mi 3.700 ft 290° 290° 3 kt METAR LFLW 252230Z AUTO 29003KT 250V320 9999 4400 +RA FEW009/// OVC037/// ///CB 15/15 Q1015
12:00 a. m.
V
59 °F 6¼ mi+ 12.000 ft 300° 300° 3 kt METAR LFLW 252200Z AUTO 30003KT 260V010 9999 SCT037/// SCT049/// OVC120/// ///TCU 15/14 Q1015

25 de junio de 2022

Hora Código Tiempo Temp. Visibilidad Cielo nuboso Viento METAR/SPECI
11:30 p. m.
V
59 °F 6¼ mi+ 4.200 ft 320° 320° 5 kt METAR LFLW 252130Z AUTO 32005KT 270V360 9999 OVC042/// ///CB 15/14 Q1015
11:00 p. m.
V
59 °F 6¼ mi+ 4.200 ft 310° 310° 3 kt METAR LFLW 252100Z AUTO 31003KT 270V350 9999 OVC042/// ///CB 15/14 Q1015
10:30 p. m.
V
59 °F 6¼ mi+ 4.300 ft Var Var 2 kt METAR LFLW 252030Z AUTO VRB02KT 9999 FEW019/// BKN043/// BKN049/// ///CB 15/14 Q1015
10:00 p. m.
V
59 °F 6¼ mi+ 4.500 ft Var Var 2 kt METAR LFLW 252000Z AUTO VRB02KT 9999 FEW021/// BKN045/// BKN064/// ///CB 15/14 Q1015
9:30 p. m.
V
61 °F 6¼ mi+ 3.300 ft 240° 240° 3 kt METAR LFLW 251930Z AUTO 24003KT 200V320 9999 -RA VCTS FEW013/// BKN033/// BKN049/// ///CB 16/14 Q1014
9:00 p. m.
V
63 °F 6¼ mi+ 3.800 ft 320° 320° 5 kt METAR LFLW 251900Z AUTO 32005KT 280V010 9999 FEW028/// BKN038/// OVC045/// ///CB 17/13 Q1014
8:30 p. m.
M
64 °F 6¼ mi+ 2.500 ft 300° 300° 6 kt METAR LFLW 251830Z AUTO 30006KT 270V350 9999 FEW019 BKN025 BKN039 18/14 Q1014
8:00 p. m.
V
66 °F 6¼ mi+ 4.000 ft 310° 310° 6 kt METAR LFLW 251800Z AUTO 31006KT 260V350 9999 FEW020 SCT028 OVC040 19/14 Q1013
7:30 p. m.
V
68 °F 6¼ mi+ 4.800 ft 330° 330° 6 kt METAR LFLW 251730Z AUTO 33006KT 280V010 9999 SCT027/// BKN048/// BKN110/// ///CB 20/14 Q1013
7:00 p. m.
V
66 °F 6¼ mi+ 4.100 ft 300° 300° 5 kt METAR LFLW 251700Z AUTO 30005KT 260V360 9999 FEW022/// BKN041/// BKN052/// ///CB 19/15 Q1013 TEMPO VRB15G30KT 2000 +TSRA BKN006 BKN040CB
6:30 p. m.
V
68 °F 6¼ mi+ 4.800 ft 310° 310° 6 kt METAR LFLW 251630Z AUTO 31006KT 270V350 9999 FEW037 BKN048 20/14 Q1013 TEMPO VRB15G30KT 2000 +TSRA BKN006 BKN040CB
6:00 p. m.
V
68 °F 6¼ mi+ 4.600 ft 310° 310° 6 kt METAR LFLW 251600Z AUTO 31006KT 280V010 9999 BKN046/// OVC056/// ///TCU 20/15 Q1013 TEMPO VRB15G30KT 2000 +TSRA BKN006 BKN040CB
5:30 p. m.
V
66 °F 6¼ mi+ 4.600 ft 320° 320° 5 kt METAR LFLW 251530Z AUTO 32005KT 250V360 9999 SCT021 SCT039 OVC046 19/15 Q1013 TEMPO VRB15G30KT 2000 +TSRA BKN006 BKN040CB
5:00 p. m.
V
68 °F 6¼ mi+ 14.000 ft 340° 340° 6 kt METAR LFLW 251500Z AUTO 34006KT 300V010 9999 FEW018 SCT052 OVC140 20/15 Q1013 NOSIG
4:30 p. m.
V
68 °F 6¼ mi+ 5.800 ft 320° 320° 6 kt METAR LFLW 251430Z AUTO 32006KT 250V010 9999 FEW019/// BKN058/// OVC140/// ///CB 20/15 Q1013 BECMG BKN040 BKN080
4:00 p. m.
V
68 °F 6¼ mi+ - 310° 310° 7 kt METAR LFLW 251400Z AUTO 31007KT 270V350 9999 FEW016/// ///CB 20/15 Q1013 TEMPO VRB20G50KT 2000 +TSRAGR
3:30 p. m.
V
68 °F 5 mi 5.800 ft 270° 270° 7 kt METAR LFLW 251330Z AUTO 27007KT 240V310 8000 -RA VCTS SCT017/// BKN058/// BKN076/// ///CB 20/18 Q1013 TEMPO VRB20G50KT 2000 +TSRAGR
3:00 p. m.
V
70 °F 6¼ mi+ - 260° 260° 10 kt METAR LFLW 251300Z AUTO 26010KT 220V300 9999 VCTS ///CB 21/15 Q1012 TEMPO VRB20G50KT 2000 +TSRAGR
Datos más antiguos

Descarga nuestra aplicación

Acceso fácil a todo el tiempo de la aviación en tu teléfono móvil y tableta.
Con muchas funciones no disponibles en el sitio web, como la compatibilidad sin conexión y una lista personal de aeropuertos.

Nosotros y terceros seguimos tu comportamiento en Internet en nuestro sitio web con cookies. Si continúas, asumimos que estás de acuerdo con nuestra política de cookies. Más información